sensor_id;sensor_type;location;lat;lon;timestamp;P1;durP1;ratioP1;P2;durP2;ratioP2
16820;SDS011;8527;49.740;6.604;2024-01-11T00:00:09;43.38;;;15.63;;
16820;SDS011;8527;49.740;6.604;2024-01-11T00:05:09;44.25;;;14.88;;
16820;SDS011;8527;49.740;6.604;2024-01-11T00:10:16;52.25;;;16.52;;
16820;SDS011;8527;49.740;6.604;2024-01-11T00:15:24;47.80;;;16.38;;
16820;SDS011;8527;49.740;6.604;2024-01-11T00:20:28;48.35;;;16.05;;
16820;SDS011;8527;49.740;6.604;2024-01-11T00:25:26;44.70;;;15.48;;
16820;SDS011;8527;49.740;6.604;2024-01-11T00:30:25;56.28;;;16.80;;
16820;SDS011;8527;49.740;6.604;2024-01-11T00:35:23;40.55;;;14.77;;
16820;SDS011;8527;49.740;6.604;2024-01-11T00:40:24;47.42;;;16.35;;
16820;SDS011;8527;49.740;6.604;2024-01-11T00:45:23;42.53;;;14.88;;
16820;SDS011;8527;49.740;6.604;2024-01-11T00:50:24;45.92;;;15.05;;
16820;SDS011;8527;49.740;6.604;2024-01-11T00:55:27;46.80;;;16.75;;
16820;SDS011;8527;49.740;6.604;2024-01-11T01:00:29;43.33;;;15.00;;
16820;SDS011;8527;49.740;6.604;2024-01-11T01:05:28;51.75;;;16.45;;
16820;SDS011;8527;49.740;6.604;2024-01-11T01:10:29;57.05;;;17.30;;
16820;SDS011;8527;49.740;6.604;2024-01-11T01:15:27;45.97;;;15.88;;
16820;SDS011;8527;49.740;6.604;2024-01-11T01:20:33;53.72;;;16.92;;
16820;SDS011;8527;49.740;6.604;2024-01-11T01:25:34;52.55;;;17.17;;
16820;SDS011;8527;49.740;6.604;2024-01-11T01:30:36;50.17;;;16.92;;
16820;SDS011;8527;49.740;6.604;2024-01-11T01:35:34;43.90;;;14.85;;
16820;SDS011;8527;49.740;6.604;2024-01-11T01:40:42;45.22;;;16.92;;
16820;SDS011;8527;49.740;6.604;2024-01-11T01:45:49;50.55;;;17.40;;
16820;SDS011;8527;49.740;6.604;2024-01-11T01:50:54;55.55;;;17.85;;
16820;SDS011;8527;49.740;6.604;2024-01-11T01:55:56;52.78;;;15.60;;
16820;SDS011;8527;49.740;6.604;2024-01-11T02:00:57;51.60;;;16.70;;
16820;SDS011;8527;49.740;6.604;2024-01-11T02:05:56;53.03;;;17.75;;
16820;SDS011;8527;49.740;6.604;2024-01-11T02:10:58;52.60;;;16.02;;
16820;SDS011;8527;49.740;6.604;2024-01-11T02:15:58;54.30;;;17.95;;
16820;SDS011;8527;49.740;6.604;2024-01-11T02:20:57;57.50;;;18.95;;
16820;SDS011;8527;49.740;6.604;2024-01-11T02:26:00;53.58;;;17.55;;
16820;SDS011;8527;49.740;6.604;2024-01-11T02:30:59;51.53;;;16.67;;
16820;SDS011;8527;49.740;6.604;2024-01-11T02:35:57;54.50;;;17.33;;
16820;SDS011;8527;49.740;6.604;2024-01-11T02:40:55;63.83;;;18.95;;
16820;SDS011;8527;49.740;6.604;2024-01-11T02:46:01;30.52;;;13.35;;
16820;SDS011;8527;49.740;6.604;2024-01-11T02:51:03;50.30;;;17.98;;
16820;SDS011;8527;49.740;6.604;2024-01-11T02:56:02;61.80;;;20.00;;
16820;SDS011;8527;49.740;6.604;2024-01-11T03:01:03;61.67;;;19.35;;
16820;SDS011;8527;49.740;6.604;2024-01-11T03:06:02;53.20;;;18.13;;
16820;SDS011;8527;49.740;6.604;2024-01-11T03:11:01;55.95;;;19.08;;
16820;SDS011;8527;49.740;6.604;2024-01-11T03:16:07;69.35;;;20.27;;
16820;SDS011;8527;49.740;6.604;2024-01-11T03:21:11;51.50;;;17.23;;
16820;SDS011;8527;49.740;6.604;2024-01-11T03:26:13;55.88;;;20.20;;
16820;SDS011;8527;49.740;6.604;2024-01-11T03:31:16;62.53;;;21.38;;
16820;SDS011;8527;49.740;6.604;2024-01-11T03:36:15;59.10;;;20.77;;
16820;SDS011;8527;49.740;6.604;2024-01-11T03:41:13;47.80;;;15.15;;
16820;SDS011;8527;49.740;6.604;2024-01-11T03:46:14;69.75;;;20.73;;
16820;SDS011;8527;49.740;6.604;2024-01-11T03:51:15;68.72;;;20.75;;
16820;SDS011;8527;49.740;6.604;2024-01-11T03:56:13;79.72;;;24.70;;
16820;SDS011;8527;49.740;6.604;2024-01-11T04:01:18;80.63;;;24.42;;
16820;SDS011;8527;49.740;6.604;2024-01-11T04:06:19;68.22;;;20.13;;
16820;SDS011;8527;49.740;6.604;2024-01-11T04:11:25;69.57;;;21.50;;
16820;SDS011;8527;49.740;6.604;2024-01-11T04:16:28;56.35;;;20.77;;
16820;SDS011;8527;49.740;6.604;2024-01-11T04:21:27;70.68;;;21.10;;
16820;SDS011;8527;49.740;6.604;2024-01-11T04:26:26;65.63;;;19.85;;
16820;SDS011;8527;49.740;6.604;2024-01-11T04:31:28;90.50;;;27.60;;
16820;SDS011;8527;49.740;6.604;2024-01-11T04:36:31;62.77;;;20.43;;
16820;SDS011;8527;49.740;6.604;2024-01-11T04:41:33;66.80;;;21.13;;
16820;SDS011;8527;49.740;6.604;2024-01-11T04:46:38;65.97;;;21.92;;
16820;SDS011;8527;49.740;6.604;2024-01-11T04:51:47;67.18;;;20.88;;
16820;SDS011;8527;49.740;6.604;2024-01-11T04:56:49;65.50;;;22.88;;
16820;SDS011;8527;49.740;6.604;2024-01-11T05:02:06;65.03;;;21.33;;
16820;SDS011;8527;49.740;6.604;2024-01-11T05:07:05;50.47;;;15.32;;
16820;SDS011;8527;49.740;6.604;2024-01-11T05:12:04;77.13;;;21.45;;
16820;SDS011;8527;49.740;6.604;2024-01-11T05:17:08;65.18;;;21.65;;
16820;SDS011;8527;49.740;6.604;2024-01-11T05:22:09;71.13;;;22.02;;
16820;SDS011;8527;49.740;6.604;2024-01-11T05:27:12;73.70;;;24.25;;
16820;SDS011;8527;49.740;6.604;2024-01-11T05:32:20;66.30;;;21.80;;
16820;SDS011;8527;49.740;6.604;2024-01-11T05:37:19;65.43;;;22.17;;
16820;SDS011;8527;49.740;6.604;2024-01-11T05:42:17;74.30;;;22.85;;
16820;SDS011;8527;49.740;6.604;2024-01-11T05:47:16;66.20;;;22.08;;
16820;SDS011;8527;49.740;6.604;2024-01-11T05:52:18;67.68;;;21.98;;
16820;SDS011;8527;49.740;6.604;2024-01-11T05:57:16;63.42;;;23.27;;
16820;SDS011;8527;49.740;6.604;2024-01-11T06:02:18;66.25;;;21.70;;
16820;SDS011;8527;49.740;6.604;2024-01-11T06:07:21;70.40;;;21.73;;
16820;SDS011;8527;49.740;6.604;2024-01-11T06:12:28;75.85;;;23.38;;
16820;SDS011;8527;49.740;6.604;2024-01-11T06:17:29;69.90;;;21.90;;
16820;SDS011;8527;49.740;6.604;2024-01-11T06:22:33;68.88;;;21.50;;
16820;SDS011;8527;49.740;6.604;2024-01-11T06:27:32;65.13;;;20.27;;
16820;SDS011;8527;49.740;6.604;2024-01-11T06:32:30;74.90;;;25.45;;
16820;SDS011;8527;49.740;6.604;2024-01-11T06:37:37;62.10;;;20.73;;
16820;SDS011;8527;49.740;6.604;2024-01-11T06:42:37;68.88;;;22.52;;
16820;SDS011;8527;49.740;6.604;2024-01-11T06:47:35;79.78;;;23.33;;
16820;SDS011;8527;49.740;6.604;2024-01-11T06:52:38;63.03;;;20.50;;
16820;SDS011;8527;49.740;6.604;2024-01-11T06:57:36;61.65;;;21.30;;
16820;SDS011;8527;49.740;6.604;2024-01-11T07:02:35;71.95;;;25.05;;
16820;SDS011;8527;49.740;6.604;2024-01-11T07:07:43;83.38;;;22.77;;
16820;SDS011;8527;49.740;6.604;2024-01-11T07:12:42;58.13;;;20.90;;
16820;SDS011;8527;49.740;6.604;2024-01-11T07:17:43;58.25;;;20.80;;
16820;SDS011;8527;49.740;6.604;2024-01-11T07:22:47;60.58;;;22.13;;
16820;SDS011;8527;49.740;6.604;2024-01-11T07:27:45;64.07;;;20.52;;
16820;SDS011;8527;49.740;6.604;2024-01-11T07:32:44;66.07;;;21.42;;
16820;SDS011;8527;49.740;6.604;2024-01-11T07:37:48;56.60;;;18.80;;
16820;SDS011;8527;49.740;6.604;2024-01-11T07:42:46;56.97;;;19.23;;
16820;SDS011;8527;49.740;6.604;2024-01-11T07:47:45;62.38;;;20.85;;
16820;SDS011;8527;49.740;6.604;2024-01-11T07:52:48;70.32;;;21.52;;
16820;SDS011;8527;49.740;6.604;2024-01-11T07:57:46;59.70;;;20.48;;
16820;SDS011;8527;49.740;6.604;2024-01-11T08:02:45;95.68;;;26.67;;
16820;SDS011;8527;49.740;6.604;2024-01-11T08:07:43;71.15;;;21.15;;
16820;SDS011;8527;49.740;6.604;2024-01-11T08:12:44;73.20;;;23.33;;
16820;SDS011;8527;49.740;6.604;2024-01-11T08:17:43;81.32;;;25.60;;
16820;SDS011;8527;49.740;6.604;2024-01-11T08:22:45;61.05;;;20.10;;
16820;SDS011;8527;49.740;6.604;2024-01-11T08:27:46;93.70;;;26.67;;
16820;SDS011;8527;49.740;6.604;2024-01-11T08:32:45;77.22;;;23.52;;
16820;SDS011;8527;49.740;6.604;2024-01-11T08:37:44;61.63;;;20.38;;
16820;SDS011;8527;49.740;6.604;2024-01-11T08:42:43;57.75;;;19.23;;
16820;SDS011;8527;49.740;6.604;2024-01-11T08:47:47;73.95;;;23.77;;
16820;SDS011;8527;49.740;6.604;2024-01-11T08:52:49;77.32;;;22.00;;
16820;SDS011;8527;49.740;6.604;2024-01-11T08:57:54;48.63;;;18.05;;
16820;SDS011;8527;49.740;6.604;2024-01-11T09:02:53;53.78;;;18.25;;
16820;SDS011;8527;49.740;6.604;2024-01-11T09:07:54;62.67;;;21.63;;
16820;SDS011;8527;49.740;6.604;2024-01-11T09:13:01;63.45;;;20.60;;
16820;SDS011;8527;49.740;6.604;2024-01-11T09:18:27;62.60;;;21.80;;
16820;SDS011;8527;49.740;6.604;2024-01-11T09:23:26;72.18;;;22.33;;
16820;SDS011;8527;49.740;6.604;2024-01-11T09:28:28;58.55;;;19.40;;
16820;SDS011;8527;49.740;6.604;2024-01-11T09:33:26;73.60;;;25.63;;
16820;SDS011;8527;49.740;6.604;2024-01-11T09:38:25;57.90;;;18.70;;
16820;SDS011;8527;49.740;6.604;2024-01-11T09:43:23;69.22;;;22.25;;
16820;SDS011;8527;49.740;6.604;2024-01-11T09:48:26;69.18;;;23.60;;
16820;SDS011;8527;49.740;6.604;2024-01-11T09:53:27;56.88;;;20.80;;
16820;SDS011;8527;49.740;6.604;2024-01-11T09:58:31;68.40;;;21.80;;
16820;SDS011;8527;49.740;6.604;2024-01-11T10:03:34;61.85;;;22.20;;
16820;SDS011;8527;49.740;6.604;2024-01-11T10:08:35;52.30;;;17.90;;
16820;SDS011;8527;49.740;6.604;2024-01-11T10:13:35;57.35;;;20.45;;
16820;SDS011;8527;49.740;6.604;2024-01-11T10:18:36;62.88;;;21.67;;
16820;SDS011;8527;49.740;6.604;2024-01-11T10:23:37;58.92;;;21.33;;
16820;SDS011;8527;49.740;6.604;2024-01-11T10:28:36;52.75;;;18.30;;
16820;SDS011;8527;49.740;6.604;2024-01-11T10:33:37;59.45;;;18.98;;
16820;SDS011;8527;49.740;6.604;2024-01-11T10:38:38;60.33;;;20.95;;
16820;SDS011;8527;49.740;6.604;2024-01-11T10:43:37;65.28;;;22.00;;
16820;SDS011;8527;49.740;6.604;2024-01-11T10:48:39;50.05;;;18.38;;
16820;SDS011;8527;49.740;6.604;2024-01-11T10:53:46;45.08;;;15.95;;
16820;SDS011;8527;49.740;6.604;2024-01-11T10:58:46;43.35;;;14.55;;
16820;SDS011;8527;49.740;6.604;2024-01-11T11:03:49;41.33;;;16.13;;
16820;SDS011;8527;49.740;6.604;2024-01-11T11:08:52;54.03;;;18.20;;
16820;SDS011;8527;49.740;6.604;2024-01-11T11:13:55;49.60;;;20.05;;
16820;SDS011;8527;49.740;6.604;2024-01-11T11:18:59;46.00;;;17.65;;
16820;SDS011;8527;49.740;6.604;2024-01-11T11:23:58;40.38;;;14.38;;
16820;SDS011;8527;49.740;6.604;2024-01-11T11:28:59;49.30;;;17.92;;
16820;SDS011;8527;49.740;6.604;2024-01-11T11:34:04;49.63;;;18.38;;
16820;SDS011;8527;49.740;6.604;2024-01-11T11:39:23;47.70;;;19.70;;
16820;SDS011;8527;49.740;6.604;2024-01-11T11:44:21;44.33;;;16.00;;
16820;SDS011;8527;49.740;6.604;2024-01-11T11:49:23;47.45;;;16.33;;
16820;SDS011;8527;49.740;6.604;2024-01-11T11:54:58;53.90;;;18.47;;
16820;SDS011;8527;49.740;6.604;2024-01-11T11:59:57;52.63;;;20.38;;
16820;SDS011;8527;49.740;6.604;2024-01-11T12:05:03;41.55;;;15.55;;
16820;SDS011;8527;49.740;6.604;2024-01-11T12:10:02;54.67;;;18.65;;
16820;SDS011;8527;49.740;6.604;2024-01-11T12:15:02;39.38;;;14.02;;
16820;SDS011;8527;49.740;6.604;2024-01-11T12:20:06;37.03;;;14.77;;
16820;SDS011;8527;49.740;6.604;2024-01-11T12:25:05;41.97;;;12.95;;
16820;SDS011;8527;49.740;6.604;2024-01-11T12:30:13;35.60;;;14.95;;
16820;SDS011;8527;49.740;6.604;2024-01-11T12:35:17;44.95;;;15.18;;
16820;SDS011;8527;49.740;6.604;2024-01-11T12:40:16;45.10;;;16.20;;
16820;SDS011;8527;49.740;6.604;2024-01-11T12:45:14;43.13;;;17.13;;
16820;SDS011;8527;49.740;6.604;2024-01-11T12:50:19;52.72;;;18.80;;
16820;SDS011;8527;49.740;6.604;2024-01-11T12:55:18;42.00;;;15.57;;
16820;SDS011;8527;49.740;6.604;2024-01-11T13:00:20;42.63;;;16.35;;
16820;SDS011;8527;49.740;6.604;2024-01-11T13:05:21;46.35;;;17.17;;
16820;SDS011;8527;49.740;6.604;2024-01-11T13:10:20;39.78;;;16.15;;
16820;SDS011;8527;49.740;6.604;2024-01-11T13:15:23;41.35;;;16.20;;
16820;SDS011;8527;49.740;6.604;2024-01-11T13:20:24;42.28;;;16.25;;
16820;SDS011;8527;49.740;6.604;2024-01-11T13:25:22;39.63;;;14.05;;
16820;SDS011;8527;49.740;6.604;2024-01-11T13:30:20;40.28;;;16.58;;
16820;SDS011;8527;49.740;6.604;2024-01-11T13:35:19;34.38;;;13.95;;
16820;SDS011;8527;49.740;6.604;2024-01-11T13:40:26;24.35;;;9.10;;
16820;SDS011;8527;49.740;6.604;2024-01-11T13:45:26;39.28;;;15.18;;
16820;SDS011;8527;49.740;6.604;2024-01-11T13:50:28;33.60;;;14.27;;
16820;SDS011;8527;49.740;6.604;2024-01-11T13:55:30;33.10;;;13.57;;
16820;SDS011;8527;49.740;6.604;2024-01-11T14:00:33;32.00;;;12.68;;
16820;SDS011;8527;49.740;6.604;2024-01-11T14:05:33;38.88;;;14.23;;
16820;SDS011;8527;49.740;6.604;2024-01-11T14:10:34;25.33;;;11.30;;
16820;SDS011;8527;49.740;6.604;2024-01-11T14:15:32;30.08;;;12.13;;
16820;SDS011;8527;49.740;6.604;2024-01-11T14:20:31;37.50;;;14.55;;
16820;SDS011;8527;49.740;6.604;2024-01-11T14:25:30;29.27;;;12.38;;
16820;SDS011;8527;49.740;6.604;2024-01-11T14:30:31;24.80;;;10.30;;
16820;SDS011;8527;49.740;6.604;2024-01-11T14:35:32;26.20;;;11.23;;
16820;SDS011;8527;49.740;6.604;2024-01-11T14:40:31;31.35;;;13.07;;
16820;SDS011;8527;49.740;6.604;2024-01-11T14:45:34;31.00;;;12.02;;
16820;SDS011;8527;49.740;6.604;2024-01-11T14:50:33;28.63;;;11.05;;
16820;SDS011;8527;49.740;6.604;2024-01-11T14:55:32;40.47;;;11.38;;
16820;SDS011;8527;49.740;6.604;2024-01-11T15:00:35;27.27;;;11.45;;
16820;SDS011;8527;49.740;6.604;2024-01-11T15:05:34;28.45;;;11.20;;
16820;SDS011;8527;49.740;6.604;2024-01-11T15:10:32;26.88;;;11.27;;
16820;SDS011;8527;49.740;6.604;2024-01-11T15:15:32;22.25;;;8.95;;
16820;SDS011;8527;49.740;6.604;2024-01-11T15:20:33;24.58;;;10.05;;
16820;SDS011;8527;49.740;6.604;2024-01-11T15:25:32;29.92;;;10.95;;
16820;SDS011;8527;49.740;6.604;2024-01-11T15:30:31;26.50;;;10.80;;
16820;SDS011;8527;49.740;6.604;2024-01-11T15:35:29;37.50;;;13.52;;
16820;SDS011;8527;49.740;6.604;2024-01-11T15:40:30;34.33;;;12.80;;
16820;SDS011;8527;49.740;6.604;2024-01-11T15:45:32;34.45;;;13.43;;
16820;SDS011;8527;49.740;6.604;2024-01-11T15:50:30;41.90;;;16.95;;
16820;SDS011;8527;49.740;6.604;2024-01-11T15:55:31;34.35;;;12.88;;
16820;SDS011;8527;49.740;6.604;2024-01-11T16:00:34;31.33;;;13.82;;
16820;SDS011;8527;49.740;6.604;2024-01-11T16:05:33;36.78;;;15.00;;
16820;SDS011;8527;49.740;6.604;2024-01-11T16:10:34;47.25;;;18.15;;
16820;SDS011;8527;49.740;6.604;2024-01-11T16:15:33;42.42;;;17.92;;
16820;SDS011;8527;49.740;6.604;2024-01-11T16:20:32;38.42;;;16.15;;
16820;SDS011;8527;49.740;6.604;2024-01-11T16:25:30;34.50;;;15.30;;
16820;SDS011;8527;49.740;6.604;2024-01-11T16:30:34;39.45;;;15.73;;
16820;SDS011;8527;49.740;6.604;2024-01-11T16:35:33;29.08;;;13.02;;
16820;SDS011;8527;49.740;6.604;2024-01-11T16:40:31;34.33;;;16.08;;
16820;SDS011;8527;49.740;6.604;2024-01-11T16:45:30;41.72;;;14.93;;
16820;SDS011;8527;49.740;6.604;2024-01-11T16:50:34;47.05;;;18.15;;
16820;SDS011;8527;49.740;6.604;2024-01-11T16:55:32;36.78;;;13.95;;
16820;SDS011;8527;49.740;6.604;2024-01-11T17:00:33;32.10;;;12.38;;
16820;SDS011;8527;49.740;6.604;2024-01-11T17:05:35;40.58;;;13.88;;
16820;SDS011;8527;49.740;6.604;2024-01-11T17:10:34;34.08;;;12.90;;
16820;SDS011;8527;49.740;6.604;2024-01-11T17:15:34;37.08;;;13.15;;
16820;SDS011;8527;49.740;6.604;2024-01-11T17:20:36;32.10;;;14.57;;
16820;SDS011;8527;49.740;6.604;2024-01-11T17:25:37;41.20;;;16.70;;
16820;SDS011;8527;49.740;6.604;2024-01-11T17:30:36;40.17;;;16.70;;
16820;SDS011;8527;49.740;6.604;2024-01-11T17:35:37;35.28;;;13.70;;
16820;SDS011;8527;49.740;6.604;2024-01-11T17:40:36;34.65;;;12.55;;
16820;SDS011;8527;49.740;6.604;2024-01-11T17:45:35;33.85;;;12.52;;
16820;SDS011;8527;49.740;6.604;2024-01-11T17:50:39;33.70;;;13.38;;
16820;SDS011;8527;49.740;6.604;2024-01-11T17:55:37;42.42;;;16.17;;
16820;SDS011;8527;49.740;6.604;2024-01-11T18:00:35;36.90;;;13.90;;
16820;SDS011;8527;49.740;6.604;2024-01-11T18:05:39;30.45;;;13.05;;
16820;SDS011;8527;49.740;6.604;2024-01-11T18:10:41;31.50;;;13.05;;
16820;SDS011;8527;49.740;6.604;2024-01-11T18:15:41;61.63;;;21.73;;
16820;SDS011;8527;49.740;6.604;2024-01-11T18:20:42;81.82;;;26.63;;
16820;SDS011;8527;49.740;6.604;2024-01-11T18:25:42;75.32;;;26.00;;
16820;SDS011;8527;49.740;6.604;2024-01-11T18:30:44;83.90;;;29.10;;
16820;SDS011;8527;49.740;6.604;2024-01-11T18:35:45;162.52;;;45.75;;
16820;SDS011;8527;49.740;6.604;2024-01-11T18:40:47;112.38;;;30.60;;
16820;SDS011;8527;49.740;6.604;2024-01-11T18:45:47;92.18;;;30.55;;
16820;SDS011;8527;49.740;6.604;2024-01-11T18:50:49;103.40;;;32.80;;
16820;SDS011;8527;49.740;6.604;2024-01-11T18:55:48;50.92;;;19.45;;
16820;SDS011;8527;49.740;6.604;2024-01-11T19:00:59;48.45;;;20.85;;
16820;SDS011;8527;49.740;6.604;2024-01-11T19:06:06;38.10;;;16.00;;
16820;SDS011;8527;49.740;6.604;2024-01-11T19:11:05;42.83;;;17.35;;
16820;SDS011;8527;49.740;6.604;2024-01-11T19:16:10;45.67;;;18.88;;
16820;SDS011;8527;49.740;6.604;2024-01-11T19:21:14;64.97;;;23.45;;
16820;SDS011;8527;49.740;6.604;2024-01-11T19:26:15;79.15;;;26.77;;
16820;SDS011;8527;49.740;6.604;2024-01-11T19:31:18;43.30;;;17.33;;
16820;SDS011;8527;49.740;6.604;2024-01-11T19:36:19;55.20;;;18.30;;
16820;SDS011;8527;49.740;6.604;2024-01-11T19:41:23;64.03;;;20.90;;
16820;SDS011;8527;49.740;6.604;2024-01-11T19:46:22;51.50;;;18.83;;
16820;SDS011;8527;49.740;6.604;2024-01-11T19:51:27;55.35;;;19.45;;
16820;SDS011;8527;49.740;6.604;2024-01-11T19:56:40;54.13;;;20.17;;
16820;SDS011;8527;49.740;6.604;2024-01-11T20:01:44;42.97;;;15.88;;
16820;SDS011;8527;49.740;6.604;2024-01-11T20:06:53;49.35;;;17.65;;
16820;SDS011;8527;49.740;6.604;2024-01-11T20:11:56;41.33;;;15.93;;
16820;SDS011;8527;49.740;6.604;2024-01-11T20:17:14;43.55;;;17.83;;
16820;SDS011;8527;49.740;6.604;2024-01-11T20:27:29;40.75;;;16.17;;
16820;SDS011;8527;49.740;6.604;2024-01-11T20:32:28;39.13;;;15.63;;
16820;SDS011;8527;49.740;6.604;2024-01-11T20:37:33;39.00;;;13.57;;
16820;SDS011;8527;49.740;6.604;2024-01-11T20:42:35;32.70;;;13.00;;
16820;SDS011;8527;49.740;6.604;2024-01-11T20:47:34;31.05;;;13.15;;
16820;SDS011;8527;49.740;6.604;2024-01-11T20:52:35;39.92;;;16.02;;
16820;SDS011;8527;49.740;6.604;2024-01-11T20:57:34;41.33;;;16.33;;
16820;SDS011;8527;49.740;6.604;2024-01-11T21:02:32;40.28;;;15.75;;
16820;SDS011;8527;49.740;6.604;2024-01-11T21:07:36;37.70;;;14.38;;
16820;SDS011;8527;49.740;6.604;2024-01-11T21:12:35;49.60;;;17.58;;
16820;SDS011;8527;49.740;6.604;2024-01-11T21:17:36;50.63;;;19.75;;
16820;SDS011;8527;49.740;6.604;2024-01-11T21:22:37;33.55;;;15.88;;
16820;SDS011;8527;49.740;6.604;2024-01-11T21:27:35;38.55;;;15.07;;
16820;SDS011;8527;49.740;6.604;2024-01-11T21:32:34;31.75;;;14.00;;
16820;SDS011;8527;49.740;6.604;2024-01-11T21:37:32;34.50;;;13.93;;
16820;SDS011;8527;49.740;6.604;2024-01-11T21:42:33;42.13;;;16.73;;
16820;SDS011;8527;49.740;6.604;2024-01-11T21:47:32;46.72;;;16.98;;
16820;SDS011;8527;49.740;6.604;2024-01-11T21:52:30;61.08;;;18.60;;
16820;SDS011;8527;49.740;6.604;2024-01-11T21:57:29;52.33;;;17.48;;
16820;SDS011;8527;49.740;6.604;2024-01-11T22:02:30;45.80;;;15.05;;
16820;SDS011;8527;49.740;6.604;2024-01-11T22:07:31;53.17;;;19.95;;
16820;SDS011;8527;49.740;6.604;2024-01-11T22:12:30;51.53;;;20.02;;
16820;SDS011;8527;49.740;6.604;2024-01-11T22:17:31;44.25;;;17.23;;
16820;SDS011;8527;49.740;6.604;2024-01-11T22:22:29;45.67;;;18.65;;
16820;SDS011;8527;49.740;6.604;2024-01-11T22:27:28;61.38;;;21.70;;
16820;SDS011;8527;49.740;6.604;2024-01-11T22:32:31;54.17;;;19.45;;
16820;SDS011;8527;49.740;6.604;2024-01-11T22:37:30;39.80;;;15.38;;
16820;SDS011;8527;49.740;6.604;2024-01-11T22:42:29;36.88;;;14.70;;
16820;SDS011;8527;49.740;6.604;2024-01-11T22:47:27;34.22;;;14.75;;
16820;SDS011;8527;49.740;6.604;2024-01-11T22:52:28;42.30;;;16.17;;
16820;SDS011;8527;49.740;6.604;2024-01-11T22:57:29;42.55;;;16.70;;
16820;SDS011;8527;49.740;6.604;2024-01-11T23:02:28;42.28;;;16.30;;
16820;SDS011;8527;49.740;6.604;2024-01-11T23:07:29;39.63;;;15.80;;
16820;SDS011;8527;49.740;6.604;2024-01-11T23:12:28;41.05;;;14.95;;
16820;SDS011;8527;49.740;6.604;2024-01-11T23:17:26;49.65;;;17.08;;
16820;SDS011;8527;49.740;6.604;2024-01-11T23:22:24;37.90;;;15.45;;
16820;SDS011;8527;49.740;6.604;2024-01-11T23:27:26;43.80;;;15.55;;
16820;SDS011;8527;49.740;6.604;2024-01-11T23:32:24;35.30;;;13.48;;
16820;SDS011;8527;49.740;6.604;2024-01-11T23:37:24;35.42;;;13.52;;
16820;SDS011;8527;49.740;6.604;2024-01-11T23:42:22;38.75;;;14.30;;
16820;SDS011;8527;49.740;6.604;2024-01-11T23:47:23;42.83;;;16.45;;
16820;SDS011;8527;49.740;6.604;2024-01-11T23:52:22;53.42;;;18.85;;
16820;SDS011;8527;49.740;6.604;2024-01-11T23:57:23;47.28;;;18.25;;
